createdAt,value
2022-10-28T00:00:47.413Z,52.42
2022-10-28T00:01:51.182Z,52.42
2022-10-28T00:04:55.065Z,52.42
2022-10-28T00:04:58.224Z,52.42
2022-10-28T00:06:01.806Z,52.42
2022-10-28T00:07:05.455Z,52.42
2022-10-28T00:08:09.242Z,52.42
2022-10-28T00:09:12.888Z,52.51
2022-10-28T00:10:16.464Z,52.42
2022-10-28T00:11:20.107Z,52.42
2022-10-28T00:12:23.829Z,52.42
2022-10-28T00:13:27.499Z,52.42
2022-10-28T00:14:31.301Z,52.42
2022-10-28T00:15:34.882Z,52.42
2022-10-28T00:16:38.492Z,52.42
2022-10-28T00:17:42.212Z,52.42
2022-10-28T00:18:45.867Z,52.42
2022-10-28T00:19:50.086Z,52.51
2022-10-28T00:20:53.920Z,52.51
2022-10-28T00:21:57.533Z,52.51
2022-10-28T00:23:01.250Z,52.51
2022-10-28T00:24:04.991Z,52.42
2022-10-28T00:25:08.780Z,52.42
2022-10-28T00:26:12.641Z,52.42
2022-10-28T00:27:16.553Z,52.42
2022-10-28T00:28:20.082Z,52.42
2022-10-28T00:29:23.770Z,52.42
2022-10-28T00:30:27.519Z,52.42
2022-10-28T00:31:31.315Z,52.51
2022-10-28T00:32:35.048Z,52.51
2022-10-28T00:33:38.654Z,52.42
2022-10-28T00:34:42.294Z,52.42
2022-10-28T00:35:46.040Z,52.42
2022-10-28T00:36:49.779Z,52.42
2022-10-28T00:37:53.443Z,52.42
2022-10-28T00:38:56.964Z,52.42
2022-10-28T00:40:00.623Z,52.42
2022-10-28T00:41:04.296Z,52.42
2022-10-28T00:42:07.989Z,52.42
2022-10-28T00:43:11.604Z,52.42
2022-10-28T00:44:15.520Z,52.42
2022-10-28T00:45:19.317Z,52.42
2022-10-28T00:46:23.109Z,52.42
2022-10-28T00:47:26.816Z,52.42
2022-10-28T00:48:30.628Z,52.42
2022-10-28T00:49:34.178Z,52.42
2022-10-28T00:50:37.759Z,52.42
2022-10-28T00:51:41.517Z,52.42
2022-10-28T00:52:45.259Z,52.42
2022-10-28T00:53:48.849Z,52.42
2022-10-28T00:54:52.427Z,52.42
2022-10-28T00:55:56.144Z,52.42
2022-10-28T00:56:59.878Z,52.42
2022-10-28T00:58:04.013Z,52.42
2022-10-28T00:59:07.697Z,52.42
2022-10-28T01:00:11.265Z,52.42
2022-10-28T01:01:14.927Z,52.42
2022-10-28T01:02:18.724Z,52.42
2022-10-28T01:03:22.495Z,52.42
2022-10-28T01:04:26.297Z,52.42
2022-10-28T01:05:29.852Z,52.42
2022-10-28T01:06:33.513Z,52.42
2022-10-28T01:07:37.167Z,52.42
2022-10-28T01:08:40.967Z,52.42
2022-10-28T01:09:44.572Z,52.42
2022-10-28T01:10:48.218Z,52.42
2022-10-28T01:11:51.920Z,52.42
2022-10-28T01:12:55.845Z,52.42
2022-10-28T01:13:59.702Z,52.42
2022-10-28T01:15:03.330Z,52.42
2022-10-28T01:16:07.024Z,52.42
2022-10-28T01:17:10.736Z,52.42
2022-10-28T01:18:14.368Z,52.42
2022-10-28T01:19:17.944Z,52.42
2022-10-28T01:20:21.467Z,52.42
2022-10-28T01:21:25.089Z,52.42
2022-10-28T01:22:28.802Z,52.42
2022-10-28T01:23:32.357Z,52.42
2022-10-28T01:24:35.910Z,52.42
2022-10-28T01:25:39.529Z,52.42
2022-10-28T01:26:43.221Z,52.42
2022-10-28T01:27:46.779Z,52.42
2022-10-28T01:28:50.300Z,52.42
2022-10-28T01:29:53.880Z,52.42
2022-10-28T01:30:57.544Z,52.42
2022-10-28T01:32:01.102Z,52.42
2022-10-28T01:33:04.585Z,52.42
2022-10-28T01:34:08.143Z,52.42
2022-10-28T01:35:11.814Z,52.42
2022-10-28T01:36:15.438Z,52.42
2022-10-28T01:37:18.994Z,52.42
2022-10-28T01:38:22.577Z,52.42
2022-10-28T01:39:26.199Z,52.42
2022-10-28T01:40:29.892Z,52.42
2022-10-28T01:41:33.513Z,52.42
2022-10-28T01:42:37.065Z,52.42
2022-10-28T01:43:40.584Z,52.42
2022-10-28T01:44:44.180Z,52.42
2022-10-28T01:45:47.818Z,52.42
2022-10-28T01:46:51.383Z,52.42
2022-10-28T01:47:55.185Z,52.42
2022-10-28T01:48:58.893Z,52.42
2022-10-28T01:50:02.522Z,52.42
2022-10-28T01:51:06.195Z,52.42
2022-10-28T01:52:09.786Z,52.42
2022-10-28T01:53:13.281Z,52.42
2022-10-28T01:54:16.878Z,52.42
2022-10-28T01:55:20.535Z,52.42
2022-10-28T01:56:24.173Z,52.42
2022-10-28T01:57:27.729Z,52.42
2022-10-28T01:58:31.242Z,52.42
2022-10-28T01:59:34.846Z,52.42
2022-10-28T02:00:38.486Z,52.42
2022-10-28T02:01:42.527Z,52.42
2022-10-28T02:02:46.336Z,52.42
2022-10-28T02:03:49.894Z,52.42
2022-10-28T02:04:53.379Z,52.42
2022-10-28T02:05:56.970Z,52.42
2022-10-28T02:07:00.648Z,52.42
2022-10-28T02:08:04.247Z,52.42
2022-10-28T02:09:07.768Z,52.42
2022-10-28T02:10:11.323Z,52.42
2022-10-28T02:11:14.918Z,52.51
2022-10-28T02:12:18.764Z,52.51
2022-10-28T02:13:22.382Z,52.42
2022-10-28T02:14:25.939Z,52.51
2022-10-28T02:15:29.468Z,52.51
2022-10-28T02:16:33.058Z,52.42
2022-10-28T02:17:36.730Z,52.42
2022-10-28T02:18:40.323Z,52.51
2022-10-28T02:19:43.807Z,52.42
2022-10-28T02:20:47.401Z,52.42
2022-10-28T02:21:51.032Z,52.42
2022-10-28T02:22:54.639Z,52.51
2022-10-28T02:23:58.159Z,52.42
2022-10-28T02:25:01.686Z,52.42
2022-10-28T02:26:05.285Z,52.51
2022-10-28T02:27:08.911Z,52.42
2022-10-28T02:28:12.521Z,52.42
2022-10-28T02:29:16.048Z,52.42
2022-10-28T02:30:19.601Z,52.42
2022-10-28T02:31:23.236Z,52.42
2022-10-28T02:32:26.828Z,52.42
2022-10-28T02:33:30.437Z,52.42
2022-10-28T02:34:33.959Z,52.42
2022-10-28T02:35:37.553Z,52.42
2022-10-28T02:36:41.220Z,52.42
2022-10-28T02:37:44.813Z,52.42
2022-10-28T02:38:48.319Z,52.42
2022-10-28T02:39:51.899Z,52.42
2022-10-28T02:40:55.577Z,52.42
2022-10-28T02:41:59.200Z,52.42
2022-10-28T02:43:02.754Z,52.42
2022-10-28T02:44:06.322Z,52.42
2022-10-28T02:45:09.914Z,52.42
2022-10-28T02:46:13.570Z,52.42
2022-10-28T02:47:17.155Z,52.42
2022-10-28T02:48:20.636Z,52.42
2022-10-28T02:49:24.244Z,52.42
2022-10-28T02:50:27.871Z,52.42
2022-10-28T02:51:31.463Z,52.42
2022-10-28T02:52:34.990Z,52.42
2022-10-28T02:53:38.511Z,52.42
2022-10-28T02:54:42.124Z,52.42
2022-10-28T02:55:45.744Z,52.42
2022-10-28T02:56:49.278Z,52.51
2022-10-28T02:57:53.160Z,52.51
2022-10-28T02:58:56.891Z,52.42
2022-10-28T03:00:00.650Z,52.51
2022-10-28T03:01:04.350Z,52.51
2022-10-28T03:02:07.991Z,52.42
2022-10-28T03:03:11.568Z,52.51
2022-10-28T03:04:15.124Z,52.42
2022-10-28T03:05:18.765Z,52.42
2022-10-28T03:06:22.415Z,52.42
2022-10-28T03:07:26.004Z,52.42
2022-10-28T03:08:29.525Z,52.42
2022-10-28T03:09:33.180Z,52.42
2022-10-28T03:10:36.785Z,52.42
2022-10-28T03:11:40.312Z,52.42
2022-10-28T03:12:43.840Z,52.42
2022-10-28T03:13:47.498Z,52.42
2022-10-28T03:14:51.085Z,52.51
2022-10-28T03:15:54.644Z,52.51
2022-10-28T03:16:58.164Z,52.42
2022-10-28T03:18:01.856Z,52.51
2022-10-28T03:19:05.605Z,52.51
2022-10-28T03:20:09.205Z,52.42
2022-10-28T03:21:12.718Z,52.42
2022-10-28T03:22:16.345Z,52.51
2022-10-28T03:23:19.975Z,52.51
2022-10-28T03:24:23.535Z,52.51
2022-10-28T03:25:27.024Z,52.51
2022-10-28T03:26:30.690Z,52.51
2022-10-28T03:27:34.371Z,52.51
2022-10-28T03:28:37.934Z,52.51
2022-10-28T03:29:44.927Z,52.42
2022-10-28T03:30:44.837Z,52.51
2022-10-28T03:31:48.585Z,52.42
2022-10-28T03:32:52.661Z,52.42
2022-10-28T03:33:56.601Z,52.51
2022-10-28T03:35:00.138Z,52.51
2022-10-28T03:36:03.666Z,52.51
2022-10-28T03:37:07.360Z,52.51
2022-10-28T03:38:11.049Z,52.51
2022-10-28T03:39:14.613Z,52.51
2022-10-28T03:40:18.179Z,52.51
2022-10-28T03:41:21.781Z,52.51
2022-10-28T03:42:25.424Z,52.51
2022-10-28T03:43:29.014Z,52.51
2022-10-28T03:44:32.506Z,52.51
2022-10-28T03:45:36.156Z,52.51
2022-10-28T03:46:39.823Z,52.51
2022-10-28T03:47:43.523Z,52.51
2022-10-28T03:48:47.079Z,52.51
2022-10-28T03:49:50.605Z,52.51
2022-10-28T03:50:54.203Z,52.51
2022-10-28T03:51:57.888Z,52.51
2022-10-28T03:53:01.454Z,52.62
2022-10-28T03:54:04.995Z,52.51
2022-10-28T03:55:08.589Z,52.51
2022-10-28T03:56:12.216Z,52.51
2022-10-28T03:57:15.739Z,52.51
2022-10-28T03:58:19.345Z,52.51
2022-10-28T03:59:22.942Z,52.51
2022-10-28T04:00:26.596Z,52.51
2022-10-28T04:01:30.284Z,52.51
2022-10-28T04:02:33.972Z,52.51
2022-10-28T04:03:37.772Z,52.42
2022-10-28T04:04:41.404Z,52.42
2022-10-28T04:05:45.021Z,52.42
2022-10-28T04:06:48.532Z,52.51
2022-10-28T04:07:52.093Z,52.51
2022-10-28T04:08:55.774Z,52.51
2022-10-28T04:09:59.337Z,52.51
2022-10-28T04:11:02.867Z,52.51
2022-10-28T04:12:06.439Z,52.51
2022-10-28T04:13:10.146Z,52.42
2022-10-28T04:14:13.732Z,52.42
2022-10-28T04:15:17.287Z,52.42
2022-10-28T04:16:20.871Z,52.42
2022-10-28T04:17:24.531Z,52.42
2022-10-28T04:18:28.092Z,52.42
2022-10-28T04:19:31.615Z,52.42
2022-10-28T04:20:35.241Z,52.42
2022-10-28T04:21:38.863Z,52.51
2022-10-28T04:22:42.421Z,52.51
2022-10-28T04:23:45.907Z,52.51
2022-10-28T04:24:49.506Z,52.51
2022-10-28T04:25:53.140Z,52.51
2022-10-28T04:26:56.720Z,52.51
2022-10-28T04:28:00.213Z,52.51
2022-10-28T04:29:03.807Z,52.51
2022-10-28T04:30:07.447Z,52.51
2022-10-28T04:31:11.006Z,52.51
2022-10-28T04:32:14.495Z,52.51
2022-10-28T04:33:18.128Z,52.51
2022-10-28T04:34:21.847Z,52.51
2022-10-28T04:35:25.500Z,52.51
2022-10-28T04:36:28.988Z,52.51
2022-10-28T04:37:32.548Z,52.51
2022-10-28T04:38:36.218Z,52.51
2022-10-28T04:39:39.779Z,52.51
2022-10-28T04:40:43.284Z,52.51
2022-10-28T04:41:46.875Z,52.42
2022-10-28T04:42:50.915Z,52.42
2022-10-28T04:43:54.716Z,52.42
2022-10-28T04:44:58.277Z,52.51
2022-10-28T04:46:01.835Z,52.51
2022-10-28T04:47:05.435Z,52.42
2022-10-28T04:48:09.071Z,52.51
2022-10-28T04:49:12.703Z,52.51
2022-10-28T04:50:16.194Z,52.51
2022-10-28T04:51:19.826Z,52.51
2022-10-28T04:52:23.459Z,52.51
2022-10-28T04:53:27.043Z,52.51
2022-10-28T04:54:30.540Z,52.51
2022-10-28T04:55:34.141Z,52.51
2022-10-28T04:56:37.819Z,52.51
2022-10-28T04:57:41.484Z,52.51
2022-10-28T04:58:44.978Z,52.51
2022-10-28T04:59:48.571Z,52.51
2022-10-28T05:00:52.201Z,52.51
2022-10-28T05:01:55.930Z,52.51
2022-10-28T05:02:59.560Z,52.51
2022-10-28T05:04:03.162Z,52.51
2022-10-28T05:05:06.857Z,52.51
2022-10-28T05:06:10.542Z,52.51
2022-10-28T05:07:14.106Z,52.51
2022-10-28T05:08:17.636Z,52.51
2022-10-28T05:09:21.324Z,52.62
2022-10-28T05:10:24.951Z,52.64
2022-10-28T05:11:28.543Z,52.64
2022-10-28T05:12:32.047Z,52.64
2022-10-28T05:13:35.636Z,52.64
2022-10-28T05:14:39.307Z,52.54
2022-10-28T05:15:42.923Z,52.54
2022-10-28T05:16:46.414Z,52.54
2022-10-28T05:17:50.276Z,52.54
2022-10-28T05:18:53.997Z,52.54
2022-10-28T05:19:57.659Z,52.44
2022-10-28T05:21:01.213Z,52.44
2022-10-28T05:22:04.737Z,52.44
2022-10-28T05:23:08.332Z,52.32
2022-10-28T05:24:11.960Z,52.24
2022-10-28T05:25:15.513Z,52.34
2022-10-28T05:26:19.037Z,52.22
2022-10-28T05:27:22.599Z,52.12
2022-10-28T05:28:26.249Z,52.12
2022-10-28T05:29:33.278Z,52.04
2022-10-28T05:30:34.611Z,52.02
2022-10-28T05:31:38.247Z,52.02
2022-10-28T05:32:41.745Z,52.02
2022-10-28T05:33:45.379Z,51.95
2022-10-28T05:34:49.012Z,52.04
2022-10-28T05:35:52.595Z,51.95
2022-10-28T05:36:56.077Z,51.95
2022-10-28T05:37:59.647Z,51.95
2022-10-28T05:39:03.332Z,51.84
2022-10-28T05:40:07.482Z,51.84
2022-10-28T05:41:11.073Z,51.82
2022-10-28T05:42:14.586Z,51.72
2022-10-28T05:43:18.140Z,51.72
2022-10-28T05:44:21.788Z,51.72
2022-10-28T05:45:25.483Z,51.72
2022-10-28T05:46:29.049Z,51.62
2022-10-28T05:47:34.252Z,51.62
2022-10-28T05:48:37.562Z,51.62
2022-10-28T05:49:41.062Z,51.52
2022-10-28T05:50:44.664Z,51.52
2022-10-28T05:51:48.296Z,51.52
2022-10-28T05:52:51.885Z,51.52
2022-10-28T05:53:55.373Z,51.52
2022-10-28T05:54:59.044Z,51.52
2022-10-28T05:56:02.670Z,51.52
2022-10-28T05:57:06.258Z,51.52
2022-10-28T05:58:09.743Z,51.52
2022-10-28T05:59:13.371Z,51.42
2022-10-28T06:00:17.019Z,51.42
2022-10-28T06:01:20.616Z,51.42
2022-10-28T06:02:24.158Z,51.42
2022-10-28T06:03:31.005Z,51.42
2022-10-28T06:04:32.568Z,51.32
2022-10-28T06:05:36.139Z,51.42
2022-10-28T06:06:39.764Z,51.42
2022-10-28T06:07:43.318Z,51.42
2022-10-28T06:08:46.808Z,51.42
2022-10-28T06:09:50.364Z,51.42
2022-10-28T06:10:52.554Z,51.42
2022-10-28T06:11:56.212Z,51.42
2022-10-28T06:12:59.722Z,51.42
2022-10-28T06:14:03.320Z,51.52
2022-10-28T06:15:06.950Z,51.52
2022-10-28T06:16:10.567Z,51.52
2022-10-28T06:17:14.123Z,51.52
2022-10-28T06:18:18.961Z,51.52
2022-10-28T06:19:22.705Z,51.52
2022-10-28T06:20:26.230Z,51.52
2022-10-28T06:21:29.894Z,51.52
2022-10-28T06:22:33.521Z,51.52
2022-10-28T06:23:37.171Z,51.52
2022-10-28T06:24:40.653Z,51.62
2022-10-28T06:25:44.255Z,51.52
2022-10-28T06:26:47.968Z,51.62
2022-10-28T06:27:51.833Z,51.62
2022-10-28T06:28:55.614Z,51.62
2022-10-28T06:29:59.169Z,51.62
2022-10-28T06:31:02.702Z,51.62
2022-10-28T06:32:06.319Z,51.62
2022-10-28T06:33:09.987Z,51.62
2022-10-28T06:34:13.580Z,51.62
2022-10-28T06:35:17.075Z,51.62
2022-10-28T06:36:20.745Z,51.62
2022-10-28T06:37:24.384Z,51.72
2022-10-28T06:38:27.965Z,51.72
2022-10-28T06:39:31.463Z,51.72
2022-10-28T06:40:35.059Z,51.72
2022-10-28T06:41:38.700Z,51.72
2022-10-28T06:42:42.326Z,51.72
2022-10-28T06:43:45.814Z,51.62
2022-10-28T06:44:49.479Z,51.62
2022-10-28T06:45:53.121Z,51.62
2022-10-28T06:46:58.191Z,51.62
2022-10-28T06:48:01.695Z,51.62
2022-10-28T06:49:05.295Z,51.62
2022-10-28T06:50:08.929Z,51.62
2022-10-28T06:51:12.457Z,51.62
2022-10-28T06:52:16.053Z,51.62
2022-10-28T06:53:19.675Z,51.62
2022-10-28T06:54:23.309Z,51.62
2022-10-28T06:55:26.866Z,51.62
2022-10-28T06:56:30.359Z,51.62
2022-10-28T06:57:34.008Z,51.62
2022-10-28T06:58:37.676Z,51.62
2022-10-28T06:59:41.237Z,51.62
2022-10-28T07:00:44.756Z,51.62
2022-10-28T07:01:48.471Z,51.52
2022-10-28T07:02:52.229Z,51.52
2022-10-28T07:03:55.874Z,51.62
2022-10-28T07:04:59.426Z,51.52
2022-10-28T07:06:02.996Z,51.52
2022-10-28T07:07:06.690Z,51.52
2022-10-28T07:08:10.291Z,51.52
2022-10-28T07:09:13.903Z,51.52
2022-10-28T07:10:17.423Z,51.52
2022-10-28T07:11:21.122Z,51.62
2022-10-28T07:12:24.720Z,51.62
2022-10-28T07:13:28.215Z,51.62
2022-10-28T07:14:31.929Z,51.62
2022-10-28T07:15:35.555Z,51.52
2022-10-28T07:16:39.262Z,51.52
2022-10-28T07:17:42.789Z,51.52
2022-10-28T07:18:46.344Z,51.52
2022-10-28T07:19:49.957Z,51.62
2022-10-28T07:20:53.643Z,51.62
2022-10-28T07:21:57.167Z,51.62
2022-10-28T07:23:00.701Z,51.62
2022-10-28T07:24:04.304Z,51.62
2022-10-28T07:25:07.969Z,51.62
2022-10-28T07:26:11.501Z,51.62
2022-10-28T07:27:15.044Z,51.72
2022-10-28T07:28:18.720Z,51.62
2022-10-28T07:29:22.316Z,51.52
2022-10-28T07:30:25.913Z,51.52
2022-10-28T07:31:29.446Z,51.42
2022-10-28T07:32:33.074Z,51.30
2022-10-28T07:33:36.701Z,51.42
2022-10-28T07:34:40.233Z,51.32
2022-10-28T07:35:43.827Z,51.32
2022-10-28T07:36:47.485Z,51.32
2022-10-28T07:37:51.144Z,51.30
2022-10-28T07:38:54.710Z,51.30
2022-10-28T07:39:58.239Z,51.32
2022-10-28T07:41:01.822Z,51.30
2022-10-28T07:42:05.449Z,51.30
2022-10-28T07:43:09.112Z,51.30
2022-10-28T07:44:12.673Z,51.30
2022-10-28T07:45:16.196Z,51.30
2022-10-28T07:46:19.893Z,51.40
2022-10-28T07:47:23.522Z,51.40
2022-10-28T07:48:27.138Z,51.40
2022-10-28T07:49:30.637Z,51.40
2022-10-28T07:50:34.278Z,51.40
2022-10-28T07:51:37.969Z,51.40
2022-10-28T07:52:41.598Z,51.40
2022-10-28T07:53:45.306Z,51.30
2022-10-28T07:54:48.806Z,51.30
2022-10-28T07:55:52.406Z,51.30
2022-10-28T07:56:56.119Z,51.30
2022-10-28T07:57:59.725Z,51.30
2022-10-28T07:59:03.293Z,51.30
2022-10-28T08:00:06.815Z,51.20
2022-10-28T08:01:10.699Z,51.30
2022-10-28T08:02:14.600Z,51.20
2022-10-28T08:03:18.232Z,51.20
2022-10-28T08:04:21.790Z,51.20
2022-10-28T08:05:25.316Z,51.20
2022-10-28T08:06:28.946Z,51.20
2022-10-28T08:07:36.218Z,51.17
2022-10-28T08:08:37.172Z,51.07
2022-10-28T08:09:40.826Z,51.07
2022-10-28T08:10:44.429Z,51.07
2022-10-28T08:11:47.914Z,50.98
2022-10-28T08:12:51.530Z,50.98
2022-10-28T08:13:55.210Z,50.98
2022-10-28T08:14:58.848Z,50.88
2022-10-28T08:16:02.376Z,50.88
2022-10-28T08:17:05.937Z,50.88
2022-10-28T08:18:09.729Z,50.85
2022-10-28T08:19:13.356Z,50.78
2022-10-28T08:20:16.850Z,50.85
2022-10-28T08:21:20.447Z,50.85
2022-10-28T08:22:24.085Z,50.98
2022-10-28T08:23:27.723Z,50.98
2022-10-28T08:24:31.214Z,50.98
2022-10-28T08:25:34.813Z,51.07
2022-10-28T08:26:38.510Z,51.07
2022-10-28T08:27:42.143Z,51.07
2022-10-28T08:28:45.717Z,51.17
2022-10-28T08:29:49.276Z,51.17
2022-10-28T08:31:04.120Z,51.28
2022-10-28T08:31:57.905Z,51.28
2022-10-28T08:33:01.539Z,51.37
2022-10-28T08:34:05.215Z,51.37
2022-10-28T08:35:08.816Z,51.37
2022-10-28T08:36:12.319Z,51.37
2022-10-28T08:37:16.002Z,51.37
2022-10-28T08:38:19.623Z,51.47
2022-10-28T08:39:23.340Z,51.47
2022-10-28T08:40:26.869Z,51.57
2022-10-28T08:41:30.422Z,51.57
2022-10-28T08:42:34.023Z,51.60
2022-10-28T08:43:52.887Z,51.57
2022-10-28T08:44:40.409Z,51.57
2022-10-28T08:45:44.043Z,51.57
2022-10-28T08:46:47.634Z,51.57
2022-10-28T08:47:51.401Z,51.57
2022-10-28T08:48:55.144Z,51.57
2022-10-28T08:49:58.770Z,51.57
2022-10-28T08:51:02.404Z,51.47
2022-10-28T08:52:06.033Z,51.47
2022-10-28T08:53:09.534Z,51.47
2022-10-28T08:54:13.134Z,51.47
2022-10-28T08:55:16.778Z,51.57
2022-10-28T08:56:20.374Z,51.57
2022-10-28T08:57:23.898Z,51.57
2022-10-28T08:58:27.458Z,51.57
2022-10-28T08:59:31.155Z,51.57
2022-10-28T09:00:34.862Z,51.57
2022-10-28T09:01:38.695Z,51.57
2022-10-28T09:02:42.336Z,51.57
2022-10-28T09:03:45.865Z,51.47
2022-10-28T09:04:49.458Z,51.47
2022-10-28T09:05:53.134Z,51.47
2022-10-28T09:06:56.703Z,51.47
2022-10-28T09:08:00.196Z,51.47
2022-10-28T09:09:03.820Z,51.47
2022-10-28T09:10:07.464Z,51.47
2022-10-28T09:11:11.133Z,51.37
2022-10-28T09:12:14.642Z,51.47
2022-10-28T09:13:18.269Z,51.47
2022-10-28T09:14:21.900Z,51.47
2022-10-28T09:15:25.487Z,51.47
2022-10-28T09:16:28.994Z,51.47
2022-10-28T09:17:32.578Z,51.47
2022-10-28T09:18:36.255Z,51.57
2022-10-28T09:19:39.880Z,51.57
2022-10-28T09:20:43.579Z,51.57
2022-10-28T09:21:47.193Z,51.57
2022-10-28T09:22:50.819Z,51.57
2022-10-28T09:23:54.701Z,51.57
2022-10-28T09:24:58.302Z,51.57
2022-10-28T09:26:01.796Z,51.57
2022-10-28T09:27:05.374Z,51.67
2022-10-28T09:28:08.995Z,51.67
2022-10-28T09:29:12.630Z,51.67
2022-10-28T09:30:16.247Z,51.67
2022-10-28T09:31:19.773Z,51.67
2022-10-28T09:32:23.491Z,51.67
2022-10-28T09:33:27.152Z,51.67
2022-10-28T09:34:30.734Z,51.67
2022-10-28T09:35:34.290Z,51.67
2022-10-28T09:36:37.853Z,51.67
2022-10-28T09:37:41.555Z,51.77
2022-10-28T09:38:45.184Z,51.77
2022-10-28T09:39:48.682Z,51.77
2022-10-28T09:40:52.305Z,51.77
2022-10-28T09:41:55.933Z,51.77
2022-10-28T09:42:59.543Z,51.77
2022-10-28T09:44:03.030Z,51.87
2022-10-28T09:45:06.613Z,51.77
2022-10-28T09:46:10.250Z,51.87
2022-10-28T09:47:13.868Z,51.87
2022-10-28T09:48:17.373Z,51.87
2022-10-28T09:49:20.969Z,51.87
2022-10-28T09:50:24.611Z,51.87
2022-10-28T09:51:28.247Z,51.87
2022-10-28T09:52:31.736Z,51.87
2022-10-28T09:53:36.297Z,51.97
2022-10-28T09:54:39.869Z,51.97
2022-10-28T09:55:43.491Z,51.97
2022-10-28T09:56:47.117Z,51.87
2022-10-28T09:57:50.811Z,51.97
2022-10-28T09:58:54.438Z,51.97
2022-10-28T09:59:58.002Z,51.97
2022-10-28T10:01:01.665Z,51.97
2022-10-28T10:02:05.442Z,51.97
2022-10-28T10:03:09.097Z,51.97
2022-10-28T10:04:12.695Z,51.97
2022-10-28T10:05:17.444Z,51.97
2022-10-28T10:06:21.174Z,51.97
2022-10-28T10:07:24.766Z,51.97
2022-10-28T10:08:28.460Z,52.07
2022-10-28T10:09:32.068Z,52.07
2022-10-28T10:10:35.566Z,51.97
2022-10-28T10:11:39.123Z,51.97
2022-10-28T10:12:42.785Z,51.97
2022-10-28T10:13:46.410Z,51.97
2022-10-28T10:14:49.916Z,51.97
2022-10-28T10:15:53.479Z,51.97
2022-10-28T10:16:57.106Z,51.97
2022-10-28T10:18:00.732Z,51.97
2022-10-28T10:19:04.222Z,51.97
2022-10-28T10:20:07.805Z,51.97
2022-10-28T10:21:11.433Z,51.97
2022-10-28T10:22:15.026Z,51.97
2022-10-28T10:23:18.523Z,51.97
2022-10-28T10:24:22.124Z,51.97
2022-10-28T10:25:25.857Z,51.97
2022-10-28T10:26:29.523Z,51.97
2022-10-28T10:27:33.125Z,51.97
2022-10-28T10:28:36.617Z,51.97
2022-10-28T10:29:40.272Z,51.97
2022-10-28T10:30:43.986Z,51.97
2022-10-28T10:31:47.618Z,51.97
2022-10-28T10:32:51.172Z,51.97
2022-10-28T10:33:54.695Z,51.97
2022-10-28T10:34:58.317Z,51.97
2022-10-28T10:36:02.031Z,51.97
2022-10-28T10:37:05.600Z,51.97
2022-10-28T10:38:09.103Z,51.87
2022-10-28T10:39:12.670Z,51.87
2022-10-28T10:40:16.448Z,51.87
2022-10-28T10:41:20.171Z,51.95
2022-10-28T10:42:23.698Z,51.84
2022-10-28T10:43:27.241Z,51.84
2022-10-28T10:44:30.873Z,51.84
2022-10-28T10:45:34.533Z,51.84
2022-10-28T10:46:38.171Z,51.84
2022-10-28T10:47:41.692Z,51.84
2022-10-28T10:48:45.248Z,51.84
2022-10-28T10:49:48.880Z,51.84
2022-10-28T10:50:52.570Z,51.84
2022-10-28T10:51:56.175Z,51.84
2022-10-28T10:52:59.667Z,51.75
2022-10-28T10:54:03.262Z,51.75
2022-10-28T10:55:06.958Z,51.84
2022-10-28T10:56:10.613Z,51.84
2022-10-28T10:57:14.180Z,51.84
2022-10-28T10:58:17.735Z,51.84
2022-10-28T10:59:21.366Z,51.84
2022-10-28T11:00:24.960Z,51.95
2022-10-28T11:01:28.568Z,51.95
2022-10-28T11:02:32.507Z,51.95
2022-10-28T11:03:36.208Z,51.95
2022-10-28T11:04:39.832Z,51.84
2022-10-28T11:05:45.488Z,51.84
2022-10-28T11:06:46.514Z,51.84
2022-10-28T11:07:50.122Z,51.84
2022-10-28T11:08:53.754Z,51.84
2022-10-28T11:09:57.314Z,51.75
2022-10-28T11:11:00.834Z,51.75
2022-10-28T11:12:05.642Z,51.84
2022-10-28T11:13:09.280Z,51.84
2022-10-28T11:14:12.865Z,51.84
2022-10-28T11:15:16.544Z,51.84
2022-10-28T11:16:20.198Z,51.84
2022-10-28T11:17:23.751Z,51.75
2022-10-28T11:18:27.335Z,51.75
2022-10-28T11:19:30.982Z,51.84
2022-10-28T11:20:34.593Z,51.84
2022-10-28T11:21:38.167Z,51.84
2022-10-28T11:22:41.745Z,51.84
2022-10-28T11:23:45.357Z,51.84
2022-10-28T11:24:48.992Z,51.84
2022-10-28T11:25:52.589Z,51.95
2022-10-28T11:26:56.081Z,51.95
2022-10-28T11:28:03.131Z,51.95
2022-10-28T11:29:02.768Z,51.95
2022-10-28T11:30:06.249Z,51.95
2022-10-28T11:31:09.858Z,51.95
2022-10-28T11:32:13.496Z,51.95
2022-10-28T11:33:29.863Z,51.95
2022-10-28T11:34:21.316Z,51.95
2022-10-28T11:35:24.810Z,51.95
2022-10-28T11:36:28.413Z,51.95
2022-10-28T11:37:32.078Z,51.84
2022-10-28T11:38:35.639Z,51.84
2022-10-28T11:39:39.144Z,51.84
2022-10-28T11:40:42.709Z,51.95
2022-10-28T11:41:46.381Z,51.95
2022-10-28T11:42:50.046Z,51.95
2022-10-28T11:43:55.108Z,51.95
2022-10-28T11:44:57.413Z,52.04
2022-10-28T11:46:01.030Z,52.04
2022-10-28T11:47:05.221Z,52.04
2022-10-28T11:48:09.058Z,52.04
2022-10-28T11:49:12.748Z,52.14
2022-10-28T11:50:16.375Z,52.14
2022-10-28T11:51:19.865Z,52.04
2022-10-28T11:52:23.453Z,52.04
2022-10-28T11:53:27.125Z,52.14
2022-10-28T11:54:30.693Z,52.14
2022-10-28T11:55:34.211Z,52.14
2022-10-28T11:56:37.804Z,52.24
2022-10-28T11:57:41.464Z,52.34
2022-10-28T11:58:45.076Z,52.44
2022-10-28T11:59:48.630Z,52.44
2022-10-28T12:00:52.215Z,52.44
2022-10-28T12:01:56.232Z,52.44
2022-10-28T12:03:00.532Z,52.44
2022-10-28T12:04:04.563Z,52.44
2022-10-28T12:05:08.158Z,52.34
2022-10-28T12:06:11.806Z,52.34
2022-10-28T12:07:15.386Z,52.44
2022-10-28T12:08:18.880Z,52.44
2022-10-28T12:09:22.471Z,52.44
2022-10-28T12:10:26.139Z,52.44
2022-10-28T12:11:29.749Z,52.54
2022-10-28T12:12:33.330Z,52.54
2022-10-28T12:13:36.852Z,52.54
2022-10-28T12:14:40.481Z,52.54
2022-10-28T12:15:44.118Z,52.54
2022-10-28T12:16:47.782Z,52.54
2022-10-28T12:17:51.553Z,52.56
2022-10-28T12:18:55.297Z,52.64
2022-10-28T12:19:58.903Z,52.67
2022-10-28T12:21:02.652Z,52.64
2022-10-28T12:22:06.331Z,52.67
2022-10-28T12:23:09.818Z,52.56
2022-10-28T12:24:13.415Z,52.56
2022-10-28T12:25:17.120Z,52.56
2022-10-28T12:26:20.771Z,52.54
2022-10-28T12:27:24.348Z,52.54
2022-10-28T12:28:27.841Z,52.54
2022-10-28T12:29:31.439Z,52.54
2022-10-28T12:30:35.066Z,52.64
2022-10-28T12:31:38.692Z,52.54
2022-10-28T12:32:42.352Z,52.54
2022-10-28T12:33:45.913Z,52.54
2022-10-28T12:34:49.549Z,52.44
2022-10-28T12:35:53.215Z,52.34
2022-10-28T12:36:56.765Z,52.24
2022-10-28T12:38:00.304Z,52.14
2022-10-28T12:39:03.936Z,52.34
2022-10-28T12:40:07.608Z,52.44
2022-10-28T12:41:11.203Z,52.44
2022-10-28T12:42:14.698Z,52.54
2022-10-28T12:43:18.365Z,52.74
2022-10-28T12:44:22.086Z,52.64
2022-10-28T12:45:25.653Z,52.84
2022-10-28T12:46:29.140Z,52.84
2022-10-28T12:47:32.806Z,52.94
2022-10-28T12:48:36.516Z,52.94
2022-10-28T12:49:40.143Z,52.94
2022-10-28T12:50:43.697Z,52.84
2022-10-28T12:51:47.224Z,52.84
2022-10-28T12:52:50.855Z,52.84
2022-10-28T12:53:54.533Z,52.74
2022-10-28T12:54:58.091Z,52.74
2022-10-28T12:56:01.656Z,52.74
2022-10-28T12:57:05.262Z,52.44
2022-10-28T12:58:08.898Z,52.04
2022-10-28T12:59:12.582Z,51.75
2022-10-28T13:00:16.144Z,51.95
2022-10-28T13:01:19.898Z,51.95
2022-10-28T13:02:23.628Z,52.14
2022-10-28T13:03:27.230Z,52.54
2022-10-28T13:04:31.047Z,52.74
2022-10-28T13:05:35.653Z,52.94
2022-10-28T13:06:39.458Z,53.06
2022-10-28T13:07:43.061Z,53.06
2022-10-28T13:08:46.678Z,53.36
2022-10-28T13:09:50.267Z,53.36
2022-10-28T13:10:53.934Z,53.36
2022-10-28T13:11:57.597Z,53.36
2022-10-28T13:13:01.122Z,53.36
2022-10-28T13:14:04.715Z,53.36
2022-10-28T13:16:11.988Z,53.36
2022-10-28T13:17:15.511Z,53.26
2022-10-28T13:18:19.036Z,53.16
2022-10-28T13:19:22.691Z,53.06
2022-10-28T13:20:26.358Z,52.96
2022-10-28T13:21:29.875Z,52.96
2022-10-28T13:22:33.430Z,53.06
2022-10-28T13:23:37.084Z,53.06
2022-10-28T13:24:40.779Z,53.16
2022-10-28T13:25:44.385Z,53.26
2022-10-28T13:26:47.946Z,53.26
2022-10-28T13:27:51.781Z,53.36
2022-10-28T13:28:55.575Z,53.36
2022-10-28T13:29:59.233Z,53.46
2022-10-28T13:31:02.939Z,53.36
2022-10-28T13:32:06.559Z,53.36
2022-10-28T13:33:10.049Z,53.26
2022-10-28T13:34:13.649Z,53.16
2022-10-28T13:35:17.291Z,53.26
2022-10-28T13:36:20.896Z,53.36
2022-10-28T13:37:24.388Z,53.26
2022-10-28T13:38:28.022Z,53.36
2022-10-28T13:39:31.652Z,53.46
2022-10-28T13:40:35.225Z,53.46
2022-10-28T13:41:40.902Z,53.56